createdAt,value
2022-08-12T00:00:40.900Z,1.38
2022-08-12T00:03:08.219Z,1.38
2022-08-12T00:05:36.747Z,1.70
2022-08-12T00:08:04.321Z,1.50
2022-08-12T00:10:31.842Z,1.52
2022-08-12T00:12:59.161Z,1.60
2022-08-12T00:15:29.412Z,1.60
2022-08-12T00:17:56.727Z,1.30
2022-08-12T00:20:24.054Z,1.55
2022-08-12T00:22:59.398Z,1.40
2022-08-12T00:26:02.777Z,1.90
2022-08-12T00:28:24.410Z,2.08
2022-08-12T00:30:53.188Z,2.67
2022-08-12T00:33:21.003Z,2.63
2022-08-12T00:35:51.604Z,1.77
2022-08-12T00:38:19.026Z,2.42
2022-08-12T00:40:47.109Z,2.03
2022-08-12T00:43:16.050Z,1.73
2022-08-12T00:45:44.374Z,1.90
2022-08-12T00:48:13.659Z,2.40
2022-08-12T00:50:42.902Z,2.15
2022-08-12T00:53:10.845Z,2.17
2022-08-12T00:55:44.143Z,2.38
2022-08-12T00:58:16.871Z,2.10
2022-08-12T01:00:45.255Z,2.15
2022-08-12T01:03:19.658Z,2.50
2022-08-12T01:05:48.785Z,2.20
2022-08-12T01:08:16.296Z,2.40
2022-08-12T01:10:45.712Z,2.70
2022-08-12T01:13:19.419Z,2.15
2022-08-12T01:15:51.260Z,2.10
2022-08-12T01:18:21.692Z,2.83
2022-08-12T01:21:03.190Z,2.42
2022-08-12T01:24:00.957Z,2.35
2022-08-12T01:26:53.660Z,2.10
2022-08-12T01:29:24.765Z,2.30
2022-08-12T01:31:54.846Z,2.40
2022-08-12T01:34:36.186Z,2.28
2022-08-12T01:37:06.517Z,2.20
2022-08-12T01:39:38.613Z,1.88
2022-08-12T01:42:32.682Z,2.40
2022-08-12T01:45:02.155Z,2.33
2022-08-12T01:47:41.433Z,2.47
2022-08-12T01:50:18.542Z,1.95
2022-08-12T01:52:57.045Z,2.50
2022-08-12T01:55:31.976Z,1.90
2022-08-12T01:58:11.514Z,1.88
2022-08-12T02:00:54.777Z,2.40
2022-08-12T02:03:36.662Z,2.28
2022-08-12T02:06:13.827Z,2.38
2022-08-12T02:08:46.718Z,2.20
2022-08-12T02:11:20.309Z,2.63
2022-08-12T02:14:16.152Z,2.00
2022-08-12T02:16:57.213Z,2.15
2022-08-12T02:19:46.543Z,2.55
2022-08-12T02:22:26.258Z,2.28
2022-08-12T02:24:59.211Z,2.80
2022-08-12T02:27:28.873Z,3.00
2022-08-12T02:29:57.813Z,2.55
2022-08-12T02:32:25.425Z,2.53
2022-08-12T02:34:52.822Z,2.50
2022-08-12T02:37:22.606Z,2.00
2022-08-12T02:39:53.975Z,2.42
2022-08-12T02:42:23.809Z,2.15
2022-08-12T02:44:55.679Z,2.33
2022-08-12T02:47:59.671Z,1.95
2022-08-12T02:50:20.169Z,2.92
2022-08-12T02:52:49.437Z,2.40
2022-08-12T02:55:28.394Z,2.63
2022-08-12T02:58:09.032Z,2.47
2022-08-12T03:00:40.629Z,2.60
2022-08-12T03:03:11.312Z,2.80
2022-08-12T03:05:44.892Z,2.50
2022-08-12T03:08:16.547Z,2.15
2022-08-12T03:11:02.698Z,2.10
2022-08-12T03:13:33.370Z,2.20
2022-08-12T03:16:01.308Z,2.03
2022-08-12T03:18:32.563Z,1.98
2022-08-12T03:21:01.684Z,2.10
2022-08-12T03:23:31.283Z,2.25
2022-08-12T03:26:00.539Z,2.58
2022-08-12T03:28:30.929Z,2.20
2022-08-12T03:31:01.348Z,2.10
2022-08-12T03:33:34.393Z,2.13
2022-08-12T03:36:03.802Z,2.38
2022-08-12T03:38:33.436Z,2.50
2022-08-12T03:41:05.360Z,1.90
2022-08-12T03:43:35.193Z,2.00
2022-08-12T03:46:09.238Z,2.35
2022-08-12T03:48:40.313Z,2.20
2022-08-12T03:51:08.199Z,2.30
2022-08-12T03:53:36.440Z,2.20
2022-08-12T03:56:04.493Z,2.13
2022-08-12T03:58:32.421Z,2.58
2022-08-12T04:00:59.959Z,1.98
2022-08-12T04:03:27.798Z,2.85
2022-08-12T04:05:56.923Z,2.08
2022-08-12T04:08:25.747Z,2.00
2022-08-12T04:10:54.652Z,2.63
2022-08-12T04:13:22.211Z,2.50
2022-08-12T04:15:49.792Z,2.92
2022-08-12T04:18:17.508Z,2.40
2022-08-12T04:20:45.741Z,2.55
2022-08-12T04:23:16.689Z,2.60
2022-08-12T04:25:44.763Z,2.10
2022-08-12T04:28:13.521Z,2.38
2022-08-12T04:30:41.395Z,2.40
2022-08-12T04:33:09.417Z,2.22
2022-08-12T04:35:36.799Z,2.80
2022-08-12T04:38:04.475Z,2.67
2022-08-12T04:40:34.683Z,2.88
2022-08-12T04:43:02.731Z,3.80
2022-08-12T04:45:31.023Z,2.95
2022-08-12T04:47:58.909Z,3.22
2022-08-12T04:50:34.935Z,3.72
2022-08-12T04:53:05.503Z,4.38
2022-08-12T04:55:34.354Z,4.63
2022-08-12T04:58:01.814Z,4.78
2022-08-12T05:00:29.511Z,4.25
2022-08-12T05:02:56.986Z,3.97
2022-08-12T05:05:24.638Z,3.50
2022-08-12T05:07:54.106Z,3.90
2022-08-12T05:10:33.064Z,3.83
2022-08-12T05:13:07.495Z,3.10
2022-08-12T05:15:36.508Z,3.13
2022-08-12T05:18:24.086Z,3.33
2022-08-12T05:20:51.438Z,3.03
2022-08-12T05:23:21.461Z,3.22
2022-08-12T05:25:51.171Z,3.92
2022-08-12T05:28:19.931Z,3.85
2022-08-12T05:30:47.318Z,3.65
2022-08-12T05:33:15.199Z,3.28
2022-08-12T05:35:45.256Z,2.90
2022-08-12T05:38:14.329Z,3.08
2022-08-12T05:40:42.116Z,2.88
2022-08-12T05:43:09.646Z,2.60
2022-08-12T05:45:44.255Z,2.33
2022-08-12T05:48:12.655Z,2.65
2022-08-12T05:50:40.546Z,2.40
2022-08-12T05:53:08.433Z,2.85
2022-08-12T05:55:36.512Z,2.60
2022-08-12T05:58:04.730Z,2.90
2022-08-12T06:00:32.798Z,2.63
2022-08-12T06:03:02.362Z,3.20
2022-08-12T06:05:30.533Z,2.63
2022-08-12T06:08:01.775Z,2.90
2022-08-12T06:10:31.686Z,2.17
2022-08-12T06:13:00.560Z,2.95
2022-08-12T06:15:28.336Z,2.47
2022-08-12T06:18:04.496Z,2.55
2022-08-12T06:20:39.229Z,2.13
2022-08-12T06:23:09.167Z,2.10
2022-08-12T06:25:36.565Z,2.10
2022-08-12T06:28:08.074Z,1.92
2022-08-12T06:30:39.375Z,1.90
2022-08-12T06:33:22.518Z,2.00
2022-08-12T06:35:57.530Z,1.95
2022-08-12T06:38:28.290Z,1.92
2022-08-12T06:40:57.465Z,2.05
2022-08-12T06:43:24.888Z,1.85
2022-08-12T06:45:52.165Z,1.80
2022-08-12T06:48:21.232Z,1.80
2022-08-12T06:50:48.565Z,1.90
2022-08-12T06:53:15.915Z,2.00
2022-08-12T06:55:57.636Z,1.80
2022-08-12T06:58:26.367Z,2.10
2022-08-12T07:00:55.041Z,1.70
2022-08-12T07:03:24.019Z,2.10
2022-08-12T07:05:51.648Z,1.95
2022-08-12T07:08:19.240Z,1.80
2022-08-12T07:10:48.333Z,1.80
2022-08-12T07:13:15.548Z,1.80
2022-08-12T07:15:43.064Z,2.00
2022-08-12T07:18:11.931Z,1.83
2022-08-12T07:20:54.480Z,1.90
2022-08-12T07:23:22.356Z,1.60
2022-08-12T07:25:50.040Z,1.70
2022-08-12T07:28:19.730Z,1.60
2022-08-12T07:30:48.371Z,1.65
2022-08-12T07:33:16.975Z,1.73
2022-08-12T07:35:46.275Z,1.75
2022-08-12T07:38:29.451Z,1.63
2022-08-12T07:41:01.820Z,1.65
2022-08-12T07:43:30.689Z,1.92
2022-08-12T07:45:59.353Z,1.90
2022-08-12T07:48:27.265Z,1.52
2022-08-12T07:50:56.373Z,1.63
2022-08-12T07:53:23.618Z,2.00
2022-08-12T07:55:50.911Z,1.95
2022-08-12T07:58:18.455Z,1.60
2022-08-12T08:00:45.792Z,1.85
2022-08-12T08:03:13.190Z,1.70
2022-08-12T08:05:40.738Z,2.20
2022-08-12T08:08:17.571Z,1.80
2022-08-12T08:10:45.600Z,1.75
2022-08-12T08:13:12.999Z,2.00
2022-08-12T08:18:28.785Z,1.73
2022-08-12T08:20:56.621Z,1.52
2022-08-12T08:23:35.068Z,1.80
2022-08-12T08:26:03.115Z,1.52
2022-08-12T08:28:30.433Z,1.60
2022-08-12T08:30:57.711Z,1.67
2022-08-12T08:34:09.167Z,2.20
2022-08-12T08:36:23.691Z,1.45
2022-08-12T08:38:57.646Z,2.03
2022-08-12T08:42:17.516Z,1.83
2022-08-12T08:44:13.481Z,1.70
2022-08-12T08:46:41.497Z,1.55
2022-08-12T08:49:09.070Z,1.80
2022-08-12T08:51:36.970Z,2.47
2022-08-12T08:54:06.154Z,1.80
2022-08-12T08:56:33.756Z,2.00
2022-08-12T08:59:01.422Z,2.17
2022-08-12T09:01:37.736Z,1.60
2022-08-12T09:05:09.606Z,1.88
2022-08-12T09:06:55.972Z,2.20
2022-08-12T09:09:28.414Z,1.50
2022-08-12T09:12:13.394Z,1.67
2022-08-12T09:14:41.292Z,1.42
2022-08-12T09:17:08.635Z,2.22
2022-08-12T09:19:36.237Z,1.55
2022-08-12T09:22:04.842Z,1.73
2022-08-12T09:24:34.036Z,1.92
2022-08-12T09:27:03.677Z,2.00
2022-08-12T09:30:10.264Z,1.65
2022-08-12T09:32:29.445Z,1.70
2022-08-12T09:35:22.081Z,2.20
2022-08-12T09:37:58.450Z,1.83
2022-08-12T09:41:01.467Z,1.73
2022-08-12T09:43:18.895Z,1.60
2022-08-12T09:46:19.597Z,1.52
2022-08-12T09:48:36.359Z,2.00
2022-08-12T09:51:17.052Z,1.70
2022-08-12T09:54:09.060Z,2.00
2022-08-12T09:56:58.633Z,1.77
2022-08-12T10:00:13.176Z,1.80
2022-08-12T10:02:43.020Z,2.72
2022-08-12T10:05:03.291Z,1.90
2022-08-12T10:07:40.656Z,1.92
2022-08-12T10:10:23.089Z,1.80
2022-08-12T10:13:06.620Z,2.30
2022-08-12T10:16:02.925Z,2.22
2022-08-12T10:18:23.314Z,2.00
2022-08-12T10:20:53.648Z,2.40
2022-08-12T10:23:20.954Z,2.10
2022-08-12T10:26:35.282Z,1.85
2022-08-12T10:29:02.638Z,1.80
2022-08-12T10:32:19.664Z,1.90
2022-08-12T10:34:26.319Z,1.52
2022-08-12T10:36:56.101Z,1.70
2022-08-12T10:40:05.746Z,1.90
2022-08-12T10:42:12.789Z,2.10
2022-08-12T10:44:41.532Z,1.80
2022-08-12T10:47:25.962Z,1.85
2022-08-12T10:50:02.697Z,1.80
2022-08-12T10:52:37.976Z,1.95
2022-08-12T10:58:14.200Z,2.22
2022-08-12T11:00:45.196Z,2.33
2022-08-12T11:04:28.004Z,1.80
2022-08-12T11:07:08.461Z,2.13
2022-08-12T11:08:53.545Z,2.00
2022-08-12T11:12:07.677Z,2.40
2022-08-12T11:14:48.208Z,2.10
2022-08-12T11:17:33.662Z,2.13
2022-08-12T11:19:48.976Z,1.90
2022-08-12T11:22:18.176Z,2.03
2022-08-12T11:24:53.733Z,1.83
2022-08-12T11:27:23.062Z,1.90
2022-08-12T11:30:02.476Z,1.67
2022-08-12T11:32:38.498Z,1.75
2022-08-12T11:35:07.823Z,1.92
2022-08-12T11:37:57.982Z,1.70
2022-08-12T11:40:23.352Z,1.75
2022-08-12T11:42:51.852Z,1.90
2022-08-12T11:45:19.723Z,2.05
2022-08-12T11:47:49.177Z,1.92
2022-08-12T11:50:19.041Z,2.25
2022-08-12T11:52:55.639Z,2.50
2022-08-12T11:55:34.915Z,2.22
2022-08-12T11:59:38.183Z,1.95
2022-08-12T12:02:02.279Z,2.20
2022-08-12T12:03:50.811Z,1.85
2022-08-12T12:06:22.658Z,1.80
2022-08-12T12:08:52.898Z,2.05
2022-08-12T12:11:22.306Z,2.17
2022-08-12T12:14:08.743Z,1.92
2022-08-12T12:16:39.755Z,1.75
2022-08-12T12:19:10.225Z,2.13
2022-08-12T12:21:48.636Z,1.75
2022-08-12T12:24:20.835Z,1.90
2022-08-12T12:26:59.565Z,2.03
2022-08-12T12:30:17.614Z,2.17
2022-08-12T12:32:39.523Z,1.98
2022-08-12T12:35:18.291Z,1.90
2022-08-12T12:38:05.458Z,2.00
2022-08-12T12:40:43.869Z,2.08
2022-08-12T12:43:12.586Z,2.30
2022-08-12T12:45:45.831Z,1.98
2022-08-12T12:48:17.362Z,1.90
2022-08-12T12:50:51.633Z,2.22
2022-08-12T12:54:08.887Z,2.00
2022-08-12T12:56:07.363Z,2.05
2022-08-12T12:58:34.686Z,1.98
2022-08-12T13:01:04.604Z,1.88
2022-08-12T13:03:49.756Z,2.10
2022-08-12T13:08:47.020Z,2.00
2022-08-12T13:11:14.729Z,1.83
2022-08-12T13:14:11.797Z,2.30
2022-08-12T13:16:29.838Z,1.77
2022-08-12T13:18:59.543Z,2.25
2022-08-12T13:21:33.164Z,1.77
2022-08-12T13:24:09.563Z,1.98
2022-08-12T13:26:38.400Z,2.05
2022-08-12T13:29:06.043Z,2.30
2022-08-12T13:31:46.391Z,2.05
2022-08-12T13:34:33.151Z,2.10
2022-08-12T13:50:18.454Z,2.08
2022-08-12T13:52:54.615Z,2.30
2022-08-12T13:55:21.983Z,2.22
2022-08-12T13:57:59.847Z,2.00
2022-08-12T14:00:37.989Z,2.30
2022-08-12T14:03:06.729Z,2.70
2022-08-12T14:05:39.480Z,2.40
2022-08-12T14:08:08.815Z,2.70
2022-08-12T14:10:50.961Z,2.47
2022-08-12T14:14:05.305Z,2.60
2022-08-12T14:16:10.419Z,2.55
2022-08-12T14:18:49.132Z,2.35
2022-08-12T14:21:24.220Z,2.33
2022-08-12T14:24:04.991Z,2.50
2022-08-12T14:26:38.952Z,2.50
2022-08-12T14:29:06.566Z,2.30
2022-08-12T14:31:40.591Z,2.63
2022-08-12T14:34:10.697Z,2.10
2022-08-12T14:36:39.429Z,2.60
2022-08-12T14:39:09.669Z,2.60
2022-08-12T14:41:48.438Z,2.40
2022-08-12T14:44:57.898Z,2.30
2022-08-12T14:47:12.224Z,2.15
2022-08-12T14:50:41.319Z,2.45
2022-08-12T14:52:58.845Z,2.40
2022-08-12T14:58:05.161Z,2.40
2022-08-12T15:00:34.493Z,2.35
2022-08-12T15:03:02.217Z,2.50
2022-08-12T15:06:05.128Z,2.28
2022-08-12T15:08:24.537Z,2.75
2022-08-12T15:10:56.564Z,2.50
2022-08-12T15:13:24.483Z,2.80
2022-08-12T15:15:53.335Z,2.30
2022-08-12T15:18:27.264Z,2.40
2022-08-12T15:21:03.638Z,2.85
2022-08-12T15:26:28.532Z,2.83
2022-08-12T15:28:59.035Z,2.30
2022-08-12T15:31:27.882Z,2.58
2022-08-12T15:33:58.579Z,2.90
2022-08-12T15:36:53.509Z,2.40
2022-08-12T15:39:16.743Z,2.30
2022-08-12T15:41:50.210Z,2.67
2022-08-12T15:44:37.811Z,2.80
2022-08-12T15:47:06.968Z,2.50
2022-08-12T15:49:54.515Z,2.70
2022-08-12T15:52:28.076Z,2.50
2022-08-12T15:54:59.059Z,2.60
2022-08-12T15:57:33.454Z,3.10
2022-08-12T16:00:07.230Z,3.72
2022-08-12T16:02:41.146Z,4.13
2022-08-12T16:06:11.321Z,2.80
2022-08-12T16:08:06.895Z,2.90
2022-08-12T16:10:42.936Z,2.83
2022-08-12T16:13:16.281Z,2.92
2022-08-12T16:16:02.075Z,2.80
2022-08-12T16:18:31.236Z,2.78
2022-08-12T16:20:58.634Z,2.70
2022-08-12T16:23:26.975Z,2.70
2022-08-12T16:26:20.357Z,2.83
2022-08-12T16:28:54.760Z,2.90
2022-08-12T16:31:23.324Z,2.30
2022-08-12T16:34:00.672Z,2.78
2022-08-12T16:38:56.527Z,3.05
2022-08-12T16:41:25.266Z,2.85
2022-08-12T16:43:55.874Z,2.95
2022-08-12T16:46:31.589Z,2.92
2022-08-12T16:49:04.359Z,2.88
2022-08-12T16:51:40.634Z,3.72
2022-08-12T16:54:14.052Z,2.70
2022-08-12T16:56:50.591Z,2.97
2022-08-12T16:59:23.098Z,2.63
2022-08-12T17:01:54.456Z,3.15
2022-08-12T17:04:24.391Z,3.10
2022-08-12T17:06:52.683Z,3.05
2022-08-12T17:09:20.327Z,2.88
2022-08-12T17:11:50.345Z,2.38
2022-08-12T17:14:20.509Z,3.13
2022-08-12T17:16:51.286Z,3.28
2022-08-12T17:19:20.672Z,3.35
2022-08-12T17:22:09.745Z,3.53
2022-08-12T17:24:39.877Z,3.13
2022-08-12T17:27:16.497Z,3.35
2022-08-12T17:30:02.793Z,3.58
2022-08-12T17:32:31.946Z,3.22
2022-08-12T17:35:00.706Z,3.05
2022-08-12T17:37:28.396Z,3.17
2022-08-12T17:40:12.592Z,3.30
2022-08-12T17:42:47.550Z,3.58
2022-08-12T17:45:18.501Z,3.33
2022-08-12T17:48:01.730Z,3.58
2022-08-12T17:50:34.794Z,3.75
2022-08-12T17:53:03.786Z,3.65
2022-08-12T17:55:40.371Z,3.00
2022-08-12T17:58:13.809Z,3.40
2022-08-12T18:00:43.417Z,3.30
2022-08-12T18:03:11.780Z,3.45
2022-08-12T18:05:43.425Z,3.97
2022-08-12T18:08:28.767Z,3.42
2022-08-12T18:10:57.285Z,3.40
2022-08-12T18:13:40.971Z,2.80
2022-08-12T18:16:13.214Z,3.35
2022-08-12T18:18:41.934Z,3.72
2022-08-12T18:21:09.309Z,3.08
2022-08-12T18:23:46.804Z,3.63
2022-08-12T18:26:19.103Z,3.50
2022-08-12T18:28:48.997Z,3.15
2022-08-12T18:31:18.192Z,3.65
2022-08-12T18:33:46.455Z,3.60
2022-08-12T18:36:14.669Z,3.97
2022-08-12T18:38:52.927Z,4.43
2022-08-12T18:41:26.162Z,3.70
2022-08-12T18:44:00.304Z,3.50
2022-08-12T18:46:37.918Z,3.60
2022-08-12T18:49:18.255Z,4.15
2022-08-12T18:51:52.015Z,3.78
2022-08-12T18:54:25.299Z,3.72
2022-08-12T18:56:54.567Z,3.30
2022-08-12T18:59:59.687Z,3.92
2022-08-12T19:02:20.711Z,3.42
2022-08-12T19:07:23.167Z,3.60
2022-08-12T19:09:58.826Z,3.40
2022-08-12T19:12:30.301Z,4.00
2022-08-12T19:15:03.761Z,3.83
2022-08-12T19:17:47.575Z,3.85
2022-08-12T19:20:21.197Z,4.15
2022-08-12T19:22:59.593Z,4.07
2022-08-12T19:26:01.098Z,4.20
2022-08-12T19:28:18.126Z,4.13
2022-08-12T19:30:58.469Z,3.53
2022-08-12T19:33:26.186Z,3.28
2022-08-12T19:36:07.556Z,3.83
2022-08-12T19:38:46.775Z,4.40
2022-08-12T19:41:24.670Z,3.97
2022-08-12T19:44:18.521Z,3.70
2022-08-12T19:46:52.837Z,4.15
2022-08-12T19:49:22.425Z,3.97
2022-08-12T19:51:49.814Z,3.63
2022-08-12T19:54:18.707Z,3.88
2022-08-12T19:56:47.658Z,4.03
2022-08-12T19:59:18.785Z,4.00
2022-08-12T20:04:32.866Z,4.53
2022-08-12T20:07:00.747Z,4.65
2022-08-12T20:09:38.812Z,3.67
2022-08-12T20:12:10.229Z,4.55
2022-08-12T20:14:43.571Z,4.15
2022-08-12T20:17:13.220Z,4.07
2022-08-12T20:20:01.650Z,4.25
2022-08-12T20:22:31.687Z,3.88
2022-08-12T20:25:02.444Z,3.65
2022-08-12T20:28:03.631Z,4.05
2022-08-12T20:30:20.117Z,4.32
2022-08-12T20:33:00.885Z,3.85
2022-08-12T20:36:06.935Z,4.80
2022-08-12T20:38:27.229Z,4.60
2022-08-12T20:40:55.388Z,4.28
2022-08-12T20:43:24.222Z,4.88
2022-08-12T20:45:57.269Z,4.80
2022-08-12T20:48:29.427Z,5.22
2022-08-12T20:50:57.887Z,5.32
2022-08-12T20:53:53.847Z,5.60
2022-08-12T20:56:19.932Z,5.57
2022-08-12T20:58:47.217Z,5.32
2022-08-12T21:01:18.503Z,5.20
2022-08-12T21:03:52.353Z,5.05
2022-08-12T21:06:19.762Z,5.68
2022-08-12T21:08:51.838Z,5.13
2022-08-12T21:11:19.153Z,5.28
2022-08-12T21:13:46.427Z,6.45
2022-08-12T21:16:14.006Z,6.22
2022-08-12T21:18:41.374Z,6.53
2022-08-12T21:21:23.125Z,6.55
2022-08-12T21:23:51.842Z,6.32
2022-08-12T21:26:24.483Z,6.10
2022-08-12T21:28:58.114Z,5.78
2022-08-12T21:32:39.761Z,5.78
2022-08-12T21:34:15.309Z,5.15
2022-08-12T21:36:48.726Z,5.72
2022-08-12T21:39:22.045Z,5.55
2022-08-12T21:41:54.343Z,5.90
2022-08-12T21:45:44.147Z,6.32
2022-08-12T21:47:21.367Z,5.90
2022-08-12T21:49:55.581Z,6.07
2022-08-12T21:52:34.892Z,6.28
2022-08-12T21:55:08.469Z,5.70
2022-08-12T21:57:53.083Z,6.22
2022-08-12T22:00:23.700Z,6.50
2022-08-12T22:02:51.323Z,7.00
2022-08-12T22:05:18.774Z,6.63
2022-08-12T22:07:55.497Z,7.15
2022-08-12T22:10:28.256Z,7.85
2022-08-12T22:12:56.634Z,7.63
2022-08-12T22:15:23.948Z,8.30
2022-08-12T22:17:55.486Z,8.60
2022-08-12T22:20:29.697Z,8.23
2022-08-12T22:23:00.115Z,9.50
2022-08-12T22:25:29.631Z,8.73
2022-08-12T22:27:58.001Z,8.88
2022-08-12T22:30:26.485Z,8.75
2022-08-12T22:32:55.031Z,8.10
2022-08-12T22:35:24.074Z,9.05
2022-08-12T22:38:07.479Z,8.60
2022-08-12T22:40:45.158Z,9.10
2022-08-12T22:43:15.602Z,10.52
2022-08-12T22:45:48.395Z,11.00
2022-08-12T22:48:21.922Z,10.57
2022-08-12T22:50:54.041Z,11.38
2022-08-12T22:53:21.617Z,13.77
2022-08-12T22:56:00.286Z,13.45
2022-08-12T22:58:35.723Z,14.88
2022-08-12T23:01:03.696Z,13.27
2022-08-12T23:04:04.846Z,13.85
2022-08-12T23:06:44.069Z,11.55
2022-08-12T23:09:16.131Z,12.70
2022-08-12T23:11:45.724Z,11.40
2022-08-12T23:14:18.867Z,10.82
2022-08-12T23:16:54.850Z,10.93
2022-08-12T23:19:24.640Z,12.00
2022-08-12T23:22:05.890Z,10.77
2022-08-12T23:24:56.517Z,8.98
2022-08-12T23:27:44.156Z,7.82
2022-08-12T23:30:18.817Z,7.82
2022-08-12T23:32:54.612Z,9.98
2022-08-12T23:35:45.257Z,8.82
2022-08-12T23:38:28.998Z,8.02
2022-08-12T23:41:00.798Z,8.52
2022-08-12T23:43:39.822Z,8.05
2022-08-12T23:46:12.414Z,7.65
2022-08-12T23:51:22.094Z,7.53
2022-08-12T23:53:55.029Z,7.20
2022-08-12T23:56:23.921Z,7.13
2022-08-12T23:58:53.634Z,7.28
